Time;durP1;ratioP1;P1;durP2;ratioP2;P2;SDS_P1;SDS_P2;PMS_P1;PMS_P2;Temp;Humidity;BMP_temperature;BMP_pressure;BME280_temperature;BME280_humidity;BME280_pressure;Samples;Min_cycle;Max_cycle;Signal;HPM_P1;HPM_P2
2021/01/02 00:00:10;;;;;;;3.63;1.10;;;;;;;;;;5052596;28;20430;-58
2021/01/02 00:02:55;;;;;;;4.80;1.27;;;;;;;;;;5052667;28;20391;-58
2021/01/02 00:05:23;;;;;;;2.63;1.05;;;;;;;;;;5052724;28;20032;-58
2021/01/02 00:08:08;;;;;;;2.10;1.00;;;;;;;;;;5052542;28;20039;-58
2021/01/02 00:10:54;;;;;;;2.28;0.90;;;;;;;;;;5052597;28;20021;-58
2021/01/02 00:13:32;;;;;;;1.93;0.93;;;;;;;;;;5052662;28;20041;-58
2021/01/02 00:16:05;;;;;;;1.53;0.70;;;;;;;;;;5058818;28;20067;-58
2021/01/02 00:18:36;;;;;;;7.57;1.30;;;;;;;;;;5059201;28;20024;-58
2021/01/02 00:21:03;;;;;;;2.67;1.00;;;;;;;;;;5058963;28;20021;-58
2021/01/02 00:23:49;;;;;;;3.03;0.90;;;;;;;;;;5059238;28;20017;-58
2021/01/02 00:26:15;;;;;;;;;;;;;;;;;;5059594;28;20079;-58
2021/01/02 00:28:44;;;;;;;2.77;0.97;;;;;;;;;;5058989;28;20347;-58
2021/01/02 00:31:14;;;;;;;4.07;1.40;;;;;;;;;;5059162;28;20533;-58
2021/01/02 00:33:41;;;;;;;5.43;1.17;;;;;;;;;;5058097;28;20483;-58
2021/01/02 00:36:11;;;;;;;4.80;2.10;;;;;;;;;;5059153;28;20029;-58
2021/01/02 00:38:39;;;;;;;4.83;1.90;;;;;;;;;;5059108;28;20029;-58
2021/01/02 00:41:11;;;;;;;6.33;2.53;;;;;;;;;;5058953;28;20497;-58
2021/01/02 00:43:39;;;;;;;2.60;1.20;;;;;;;;;;5059010;28;20021;-58
2021/01/02 00:46:05;;;;;;;5.80;1.60;;;;;;;;;;5058892;28;20025;-58
2021/01/02 00:48:32;;;;;;;3.93;1.20;;;;;;;;;;5058942;28;20179;-58
2021/01/02 00:51:02;;;;;;;3.57;1.43;;;;;;;;;;5058915;28;20025;-58
2021/01/02 00:53:38;;;;;;;5.10;1.50;;;;;;;;;;5058924;28;20505;-57
2021/01/02 00:56:16;;;;;;;7.13;1.90;;;;;;;;;;5058765;28;20035;-57
2021/01/02 00:58:42;;;;;;;3.33;1.83;;;;;;;;;;5058859;28;20033;-58
2021/01/02 01:01:14;;;;;;;3.23;1.40;;;;;;;;;;5058927;28;20017;-58
2021/01/02 01:03:43;;;;;;;3.67;1.60;;;;;;;;;;5058756;28;20051;-57
2021/01/02 01:06:12;;;;;;;11.50;1.50;;;;;;;;;;5058657;28;20029;-58
2021/01/02 01:08:44;;;;;;;5.00;1.50;;;;;;;;;;5058768;28;20028;-57
2021/01/02 01:11:11;;;;;;;4.50;1.50;;;;;;;;;;5058622;28;20033;-57
2021/01/02 01:13:39;;;;;;;4.57;1.57;;;;;;;;;;5058709;28;20033;-57
2021/01/02 01:16:05;;;;;;;3.83;2.00;;;;;;;;;;5058652;28;20033;-57
2021/01/02 01:18:32;;;;;;;7.10;1.70;;;;;;;;;;5058584;28;20029;-57
2021/01/02 01:21:00;;;;;;;4.87;1.93;;;;;;;;;;5058591;28;20025;-57
2021/01/02 01:23:33;;;;;;;6.53;1.80;;;;;;;;;;5058707;28;20025;-57
2021/01/02 01:26:05;;;;;;;4.13;2.00;;;;;;;;;;5056765;28;20021;-57
2021/01/02 01:28:33;;;;;;;9.53;1.63;;;;;;;;;;5055347;28;20033;-57
2021/01/02 01:31:01;;;;;;;4.67;1.73;;;;;;;;;;5055382;28;20392;-57
2021/01/02 01:33:29;;;;;;;3.73;1.70;;;;;;;;;;5054791;28;20052;-57
2021/01/02 01:36:03;;;;;;;4.70;2.27;;;;;;;;;;5055347;28;20479;-57
2021/01/02 01:38:30;;;;;;;10.23;1.95;;;;;;;;;;5055262;28;20029;-57
2021/01/02 01:41:02;;;;;;;5.53;2.10;;;;;;;;;;5055195;28;20104;-57
2021/01/02 01:43:49;;;;;;;6.73;2.30;;;;;;;;;;5055173;28;20021;-57
2021/01/02 01:46:17;;;;;;;6.67;2.40;;;;;;;;;;5044764;28;20037;-57
2021/01/02 01:48:53;;;;;;;6.40;2.27;;;;;;;;;;5055024;28;20040;-57
2021/01/02 01:51:36;;;;;;;6.63;2.47;;;;;;;;;;5054906;28;20025;-57
2021/01/02 01:54:37;;;;;;;5.87;1.60;;;;;;;;;;5054984;28;20131;-57
2021/01/02 01:57:07;;;;;;;8.50;3.03;;;;;;;;;;5053714;28;20484;-57
2021/01/02 01:59:57;;;;;;;4.97;2.90;;;;;;;;;;5054799;28;20079;-57
2021/01/02 02:02:42;;;;;;;7.20;2.40;;;;;;;;;;5054934;28;20021;-57
2021/01/02 02:05:10;;;;;;;10.30;4.65;;;;;;;;;;5054775;28;20029;-57
2021/01/02 02:07:47;;;;;;;4.60;1.80;;;;;;;;;;5054642;28;20040;-57
2021/01/02 02:10:26;;;;;;;5.13;1.87;;;;;;;;;;5054623;28;20171;-57
2021/01/02 02:12:56;;;;;;;5.23;3.10;;;;;;;;;;5054559;28;20037;-57
2021/01/02 02:15:27;;;;;;;9.53;2.30;;;;;;;;;;5054395;28;20031;-57
2021/01/02 02:18:07;;;;;;;7.80;2.80;;;;;;;;;;5054516;28;20021;-57
2021/01/02 02:20:35;;;;;;;7.00;1.90;;;;;;;;;;5036571;28;20443;-57
2021/01/02 02:23:07;;;;;;;3.93;2.23;;;;;;;;;;5054478;28;20021;-57
2021/01/02 02:25:45;;;;;;;15.30;3.20;;;;;;;;;;5054343;28;20107;-57
2021/01/02 02:28:26;;;;;;;5.40;2.43;;;;;;;;;;5054424;28;20025;-57
2021/01/02 02:30:55;;;;;;;8.70;2.57;;;;;;;;;;5054274;28;20033;-57
2021/01/02 02:33:25;;;;;;;5.57;2.27;;;;;;;;;;5053316;28;20404;-57
2021/01/02 02:35:55;;;;;;;5.67;2.50;;;;;;;;;;5054234;28;20101;-57
2021/01/02 02:38:22;;;;;;;5.27;2.53;;;;;;;;;;5052878;28;20480;-57
2021/01/02 02:40:48;;;;;;;9.93;3.37;;;;;;;;;;5054194;28;20024;-57
2021/01/02 02:43:16;;;;;;;6.70;3.03;;;;;;;;;;5054115;28;20029;-57
2021/01/02 02:45:43;;;;;;;6.33;2.50;;;;;;;;;;5053862;28;20025;-57
2021/01/02 02:48:14;;;;;;;8.93;2.60;;;;;;;;;;5054042;28;20029;-57
2021/01/02 02:50:41;;;;;;;3.13;1.70;;;;;;;;;;5053910;28;20456;-57
2021/01/02 02:53:13;;;;;;;12.27;2.23;;;;;;;;;;5053791;28;20372;-57
2021/01/02 02:55:40;;;;;;;4.17;1.63;;;;;;;;;;5053697;28;20028;-57
2021/01/02 02:58:08;;;;;;;7.00;2.63;;;;;;;;;;5053785;28;20043;-56
2021/01/02 03:00:43;;;;;;;10.83;2.90;;;;;;;;;;5053646;28;20031;-56
2021/01/02 03:03:11;;;;;;;9.13;2.80;;;;;;;;;;5035890;28;20032;-57
2021/01/02 03:05:39;;;;;;;6.23;2.53;;;;;;;;;;5053666;28;20024;-57
2021/01/02 03:08:07;;;;;;;7.53;2.40;;;;;;;;;;5053634;28;20025;-56
2021/01/02 03:10:34;;;;;;;4.63;2.30;;;;;;;;;;5053720;28;20497;-56
2021/01/02 03:13:01;;;;;;;7.03;2.83;;;;;;;;;;5053429;28;20075;-56
2021/01/02 03:15:30;;;;;;;7.13;2.27;;;;;;;;;;5053370;28;20561;-56
2021/01/02 03:17:57;;;;;;;11.43;2.33;;;;;;;;;;5053317;28;20112;-56
2021/01/02 03:20:24;;;;;;;10.03;3.00;;;;;;;;;;5035384;28;20096;-56
2021/01/02 03:22:51;;;;;;;7.07;2.10;;;;;;;;;;5053228;28;20029;-56
2021/01/02 03:25:18;;;;;;;8.43;2.10;;;;;;;;;;5053242;28;20052;-56
2021/01/02 03:27:45;;;;;;;10.13;2.27;;;;;;;;;;5053092;28;20075;-58
2021/01/02 03:30:13;;;;;;;8.40;2.30;;;;;;;;;;5053106;28;20029;-56
2021/01/02 03:32:40;;;;;;;5.53;1.83;;;;;;;;;;5052659;28;20681;-57
2021/01/02 03:35:09;;;;;;;7.63;2.07;;;;;;;;;;5053177;28;20040;-56
2021/01/02 03:37:36;;;;;;;7.93;1.83;;;;;;;;;;5052954;28;20522;-57
2021/01/02 03:40:05;;;;;;;6.27;2.23;;;;;;;;;;5053109;28;20103;-56
2021/01/02 03:42:31;;;;;;;5.63;2.13;;;;;;;;;;5052902;28;20083;-56
2021/01/02 03:44:58;;;;;;;5.13;1.90;;;;;;;;;;5053047;28;20021;-56
2021/01/02 03:47:25;;;;;;;4.53;1.70;;;;;;;;;;5052759;28;20475;-56
2021/01/02 03:49:52;;;;;;;9.87;1.77;;;;;;;;;;5052418;28;20032;-56
2021/01/02 03:52:19;;;;;;;6.10;1.90;;;;;;;;;;5052764;28;20041;-56
2021/01/02 03:54:45;;;;;;;10.97;2.03;;;;;;;;;;5052928;28;20021;-56
2021/01/02 03:57:12;;;;;;;8.07;1.80;;;;;;;;;;5052733;28;20028;-56
2021/01/02 03:59:41;;;;;;;6.13;1.80;;;;;;;;;;5052718;28;20032;-56
2021/01/02 04:02:07;;;;;;;6.20;1.60;;;;;;;;;;5052865;28;20021;-57
2021/01/02 04:04:34;;;;;;;4.83;1.70;;;;;;;;;;5052966;28;20037;-56
2021/01/02 04:07:05;;;;;;;6.23;2.03;;;;;;;;;;5052685;28;20044;-57
2021/01/02 04:09:32;;;;;;;3.87;1.57;;;;;;;;;;5052526;28;20065;-56
2021/01/02 04:11:59;;;;;;;6.63;2.23;;;;;;;;;;5051597;28;20027;-56
2021/01/02 04:14:26;;;;;;;4.77;2.10;;;;;;;;;;5052566;28;20028;-56
2021/01/02 04:16:52;;;;;;;3.63;2.13;;;;;;;;;;5034583;28;20437;-56
2021/01/02 04:19:19;;;;;;;7.00;1.90;;;;;;;;;;5052441;28;20029;-56
2021/01/02 04:21:47;;;;;;;12.70;3.77;;;;;;;;;;5051334;28;20024;-56
2021/01/02 04:24:14;;;;;;;6.40;1.83;;;;;;;;;;5052432;28;20083;-57
2021/01/02 04:26:40;;;;;;;6.47;1.50;;;;;;;;;;5034470;28;20020;-56
2021/01/02 04:29:08;;;;;;;9.30;2.00;;;;;;;;;;5052399;28;20040;-56
2021/01/02 04:31:39;;;;;;;4.90;1.80;;;;;;;;;;5052334;28;20056;-56
2021/01/02 04:34:06;;;;;;;8.63;1.87;;;;;;;;;;5051526;28;20107;-55
2021/01/02 04:36:33;;;;;;;3.63;1.30;;;;;;;;;;5052117;28;20021;-56
2021/01/02 04:39:00;;;;;;;4.80;1.70;;;;;;;;;;5052365;28;20468;-55
2021/01/02 04:41:27;;;;;;;2.53;1.23;;;;;;;;;;5052413;28;20103;-55
2021/01/02 04:44:00;;;;;;;6.40;1.57;;;;;;;;;;5052261;28;20033;-56
2021/01/02 04:46:28;;;;;;;2.40;1.40;;;;;;;;;;5051853;28;20494;-56
2021/01/02 04:48:55;;;;;;;5.03;1.90;;;;;;;;;;5052195;28;20379;-56
2021/01/02 04:51:22;;;;;;;7.00;2.70;;;;;;;;;;5052175;28;20026;-55
2021/01/02 04:53:48;;;;;;;5.97;1.50;;;;;;;;;;5052048;28;20407;-55
2021/01/02 04:56:15;;;;;;;3.30;1.50;;;;;;;;;;5052201;28;20104;-56
2021/01/02 04:58:43;;;;;;;6.97;1.57;;;;;;;;;;5052092;28;20028;-55
2021/01/02 05:01:12;;;;;;;6.00;1.30;;;;;;;;;;5052866;28;20021;-56
2021/01/02 05:03:45;;;;;;;5.33;1.20;;;;;;;;;;5055827;28;20021;-56
2021/01/02 05:06:13;;;;;;;5.30;1.20;;;;;;;;;;5055655;28;20476;-56
2021/01/02 05:08:43;;;;;;;3.20;1.20;;;;;;;;;;5055894;28;20250;-56
2021/01/02 05:11:10;;;;;;;3.57;1.40;;;;;;;;;;5055739;28;20601;-56
2021/01/02 05:13:38;;;;;;;4.27;1.67;;;;;;;;;;5055666;28;20290;-56
2021/01/02 05:16:17;;;;;;;3.20;1.10;;;;;;;;;;5055500;28;20029;-56
2021/01/02 05:18:53;;;;;;;1.93;0.90;;;;;;;;;;5055691;28;20265;-56
2021/01/02 05:21:20;;;;;;;5.50;0.93;;;;;;;;;;5055565;28;20763;-56
2021/01/02 05:24:02;;;;;;;1.90;0.80;;;;;;;;;;5055481;28;20242;-56
2021/01/02 05:26:29;;;;;;;4.63;1.30;;;;;;;;;;5055530;28;20269;-56
2021/01/02 05:29:11;;;;;;;3.97;0.97;;;;;;;;;;5055432;28;20776;-56
2021/01/02 05:31:38;;;;;;;2.40;0.73;;;;;;;;;;5055418;28;20736;-56
2021/01/02 05:34:09;;;;;;;1.73;0.83;;;;;;;;;;5054650;28;20305;-56
2021/01/02 05:36:36;;;;;;;2.83;1.20;;;;;;;;;;5055359;28;20266;-56
2021/01/02 05:39:03;;;;;;;3.13;1.07;;;;;;;;;;5055376;28;20266;-56
2021/01/02 05:41:46;;;;;;;1.60;0.73;;;;;;;;;;5055179;28;20680;-56
2021/01/02 05:44:12;;;;;;;1.80;0.90;;;;;;;;;;5055144;28;20246;-56
2021/01/02 05:47:05;;;;;;;2.33;0.87;;;;;;;;;;5054891;28;20254;-55
2021/01/02 05:49:36;;;;;;;1.93;1.03;;;;;;;;;;5052429;28;20277;-55
2021/01/02 05:52:06;;;;;;;4.00;1.07;;;;;;;;;;5054878;28;20243;-56
2021/01/02 05:54:34;;;;;;;1.87;0.83;;;;;;;;;;5054936;28;20663;-56
2021/01/02 05:57:02;;;;;;;2.30;1.07;;;;;;;;;;5054958;28;20250;-56
2021/01/02 05:59:31;;;;;;;3.17;1.20;;;;;;;;;;5055251;28;20258;-55
2021/01/02 06:01:59;;;;;;;1.40;0.80;;;;;;;;;;5054953;28;20283;-56
2021/01/02 06:04:25;;;;;;;1.60;0.83;;;;;;;;;;5054967;28;20736;-56
2021/01/02 06:07:12;;;;;;;6.53;1.30;;;;;;;;;;5054757;28;20349;-55
2021/01/02 06:09:39;;;;;;;1.47;0.70;;;;;;;;;;5054818;28;20258;-55
2021/01/02 06:12:08;;;;;;;10.10;1.30;;;;;;;;;;5054467;28;20763;-56
2021/01/02 06:14:35;;;;;;;2.40;1.20;;;;;;;;;;5054863;28;20787;-56
2021/01/02 06:17:05;;;;;;;3.93;1.17;;;;;;;;;;5054698;28;20285;-56
2021/01/02 06:19:33;;;;;;;1.60;0.90;;;;;;;;;;5054627;28;20262;-56
2021/01/02 06:22:00;;;;;;;4.93;1.67;;;;;;;;;;5054572;28;20307;-56
2021/01/02 06:24:27;;;;;;;4.90;1.00;;;;;;;;;;5053442;28;20262;-57
2021/01/02 06:26:53;;;;;;;2.80;1.20;;;;;;;;;;5054564;28;20600;-57
2021/01/02 06:29:20;;;;;;;2.13;1.10;;;;;;;;;;5054447;28;20740;-56
2021/01/02 06:31:48;;;;;;;4.53;2.13;;;;;;;;;;5054322;28;20250;-56
2021/01/02 06:34:15;;;;;;;3.70;1.27;;;;;;;;;;5053955;28;20309;-56
2021/01/02 06:36:42;;;;;;;3.30;1.40;;;;;;;;;;5054209;28;20768;-56
2021/01/02 06:39:27;;;;;;;3.73;1.10;;;;;;;;;;5054242;28;20653;-56
2021/01/02 06:42:01;;;;;;;3.27;1.37;;;;;;;;;;5054214;28;20301;-56
2021/01/02 06:44:44;;;;;;;2.72;1.50;;;;;;;;;;5054219;28;20254;-56
2021/01/02 06:47:21;;;;;;;7.77;1.60;;;;;;;;;;5054260;28;20262;-56
2021/01/02 06:49:48;;;;;;;9.83;1.60;;;;;;;;;;5054154;28;20330;-56
2021/01/02 06:52:30;;;;;;;3.97;1.63;;;;;;;;;;5053986;28;20392;-56
2021/01/02 06:55:20;;;;;;;6.77;1.03;;;;;;;;;;5054076;28;20258;-56
2021/01/02 06:57:47;;;;;;;3.73;1.27;;;;;;;;;;5046174;28;20274;-56
2021/01/02 07:00:27;;;;;;;6.50;1.00;;;;;;;;;;5054132;28;20254;-56
2021/01/02 07:02:54;;;;;;;1.60;1.07;;;;;;;;;;5053862;28;20605;-56
2021/01/02 07:05:50;;;;;;;6.30;1.20;;;;;;;;;;5053669;28;20254;-56
2021/01/02 07:08:35;;;;;;;2.75;1.25;;;;;;;;;;5040455;28;20663;-56
2021/01/02 07:11:20;;;;;;;2.53;1.00;;;;;;;;;;5053866;28;20382;-56
2021/01/02 07:13:47;;;;;;;2.47;0.93;;;;;;;;;;5053605;28;20032;-56
2021/01/02 07:16:30;;;;;;;4.23;1.20;;;;;;;;;;5053605;28;20029;-56
2021/01/02 07:18:57;;;;;;;1.93;1.00;;;;;;;;;;5053557;28;20578;-56
2021/01/02 07:21:39;;;;;;;2.20;0.97;;;;;;;;;;5053606;28;20337;-56
2021/01/02 07:24:25;;;;;;;1.57;0.70;;;;;;;;;;5052864;28;20254;-56
2021/01/02 07:27:02;;;;;;;1.08;0.65;;;;;;;;;;5053479;28;20329;-56
2021/01/02 07:29:35;;;;;;;2.63;1.07;;;;;;;;;;5053340;28;20021;-56
2021/01/02 07:32:08;;;;;;;1.23;0.70;;;;;;;;;;5053312;28;20855;-56
2021/01/02 07:34:35;;;;;;;1.03;0.60;;;;;;;;;;5052813;28;20695;-56
2021/01/02 07:37:07;;;;;;;1.53;0.60;;;;;;;;;;5053161;28;20608;-56
2021/01/02 07:39:34;;;;;;;1.17;0.60;;;;;;;;;;5053317;28;20262;-56
2021/01/02 07:42:03;;;;;;;0.90;0.60;;;;;;;;;;5053513;28;20367;-56
2021/01/02 07:44:30;;;;;;;1.63;0.80;;;;;;;;;;5053298;28;20266;-56
2021/01/02 07:46:57;;;;;;;1.53;0.60;;;;;;;;;;5053043;28;20250;-56
2021/01/02 07:49:23;;;;;;;1.40;0.50;;;;;;;;;;5053146;28;20268;-57
2021/01/02 07:51:51;;;;;;;1.93;0.50;;;;;;;;;;5052972;28;20704;-56
2021/01/02 07:54:34;;;;;;;1.50;0.70;;;;;;;;;;5052896;28;20736;-56
2021/01/02 07:57:01;;;;;;;1.50;0.50;;;;;;;;;;5052757;28;20266;-56
2021/01/02 07:59:28;;;;;;;1.47;0.80;;;;;;;;;;5052865;28;20246;-56
2021/01/02 08:01:58;;;;;;;1.73;0.77;;;;;;;;;;5052785;28;20262;-56
2021/01/02 08:04:26;;;;;;;2.37;1.23;;;;;;;;;;5052852;28;20303;-56
2021/01/02 08:06:54;;;;;;;2.73;1.07;;;;;;;;;;5052816;28;20304;-56
2021/01/02 08:09:21;;;;;;;1.03;0.60;;;;;;;;;;5052712;28;20249;-56
2021/01/02 08:11:49;;;;;;;1.37;0.70;;;;;;;;;;5052623;28;20804;-56
2021/01/02 08:14:15;;;;;;;1.97;0.70;;;;;;;;;;5052657;28;20284;-56
2021/01/02 08:16:52;;;;;;;1.73;0.70;;;;;;;;;;5052675;28;20257;-56
2021/01/02 08:19:19;;;;;;;1.30;0.63;;;;;;;;;;5052700;28;20273;-56
2021/01/02 08:21:46;;;;;;;1.70;0.80;;;;;;;;;;5052582;28;20254;-56
2021/01/02 08:24:13;;;;;;;1.47;0.70;;;;;;;;;;5052533;28;20658;-56
2021/01/02 08:26:42;;;;;;;1.13;0.50;;;;;;;;;;5052464;28;20288;-56
2021/01/02 08:29:08;;;;;;;1.47;0.77;;;;;;;;;;5052695;28;20264;-56
2021/01/02 08:31:37;;;;;;;2.53;0.93;;;;;;;;;;5052498;28;20261;-56
2021/01/02 08:34:04;;;;;;;2.43;0.80;;;;;;;;;;5052092;28;20305;-56
2021/01/02 08:36:31;;;;;;;3.60;0.80;;;;;;;;;;5055440;28;20254;-56
2021/01/02 08:39:00;;;;;;;3.47;0.90;;;;;;;;;;5056600;28;20269;-56
2021/01/02 08:41:27;;;;;;;2.37;1.00;;;;;;;;;;5056548;28;20265;-56
2021/01/02 08:43:56;;;;;;;1.17;0.80;;;;;;;;;;5056397;28;20305;-56
2021/01/02 08:46:23;;;;;;;3.63;1.23;;;;;;;;;;5056291;28;20269;-56
2021/01/02 08:48:50;;;;;;;1.90;1.10;;;;;;;;;;5056433;28;20751;-56
2021/01/02 08:51:21;;;;;;;2.00;0.90;;;;;;;;;;5056226;28;20688;-56
2021/01/02 08:53:48;;;;;;;1.93;0.90;;;;;;;;;;5056115;28;20290;-56
2021/01/02 08:56:26;;;;;;;2.07;1.03;;;;;;;;;;5056099;28;20341;-56
2021/01/02 08:58:53;;;;;;;1.07;0.73;;;;;;;;;;5056026;28;20258;-56
2021/01/02 09:01:20;;;;;;;1.73;0.80;;;;;;;;;;5056128;28;20309;-56
2021/01/02 09:03:47;;;;;;;1.50;0.90;;;;;;;;;;5056049;28;20258;-56
2021/01/02 09:06:19;;;;;;;1.63;0.93;;;;;;;;;;5055912;28;20270;-56
2021/01/02 09:08:46;;;;;;;1.30;0.83;;;;;;;;;;5055905;28;20269;-56
2021/01/02 09:11:12;;;;;;;1.37;0.87;;;;;;;;;;5055833;28;20254;-56
2021/01/02 09:13:39;;;;;;;2.10;0.93;;;;;;;;;;5055809;28;20281;-56
2021/01/02 09:16:14;;;;;;;1.40;0.90;;;;;;;;;;5055653;28;20254;-56
2021/01/02 09:18:42;;;;;;;2.15;0.88;;;;;;;;;;5055861;28;20253;-56
2021/01/02 09:21:12;;;;;;;1.67;1.00;;;;;;;;;;5055770;28;20453;-56
2021/01/02 09:23:42;;;;;;;0.90;0.70;;;;;;;;;;5055780;28;20616;-56
2021/01/02 09:26:37;;;;;;;2.07;0.90;;;;;;;;;;5055656;28;20254;-56
2021/01/02 09:29:14;;;;;;;1.17;0.80;;;;;;;;;;5042683;28;20749;-56
2021/01/02 09:31:41;;;;;;;4.43;0.83;;;;;;;;;;5055480;28;20100;-56
2021/01/02 09:34:08;;;;;;;1.80;0.60;;;;;;;;;;5055015;28;20788;-56
2021/01/02 09:36:35;;;;;;;1.93;0.77;;;;;;;;;;5055370;28;20407;-56
2021/01/02 09:39:02;;;;;;;3.53;1.00;;;;;;;;;;5055425;28;20308;-56
2021/01/02 09:41:29;;;;;;;2.30;0.70;;;;;;;;;;5055275;28;20262;-56
2021/01/02 09:43:57;;;;;;;2.47;0.87;;;;;;;;;;5055320;28;20261;-55
2021/01/02 09:46:25;;;;;;;1.17;0.60;;;;;;;;;;5055128;28;20252;-56
2021/01/02 09:48:53;;;;;;;1.30;0.60;;;;;;;;;;5054925;28;20261;-56
2021/01/02 09:51:22;;;;;;;1.10;0.60;;;;;;;;;;5055143;28;20242;-56
2021/01/02 09:53:50;;;;;;;1.00;0.57;;;;;;;;;;5055092;28;20290;-56
2021/01/02 09:56:16;;;;;;;1.50;0.70;;;;;;;;;;5055086;28;20737;-55
2021/01/02 09:58:43;;;;;;;4.87;0.80;;;;;;;;;;5055167;28;20266;-56
2021/01/02 10:01:10;;;;;;;0.60;0.50;;;;;;;;;;5055022;28;20254;-56
2021/01/02 10:03:37;;;;;;;1.57;0.90;;;;;;;;;;5055020;28;20309;-56
2021/01/02 10:06:05;;;;;;;1.20;0.70;;;;;;;;;;5054917;28;20337;-56
2021/01/02 10:08:31;;;;;;;2.10;0.70;;;;;;;;;;5054767;28;20324;-56
2021/01/02 10:10:58;;;;;;;4.83;0.90;;;;;;;;;;5054952;28;20289;-56
2021/01/02 10:13:25;;;;;;;1.17;0.73;;;;;;;;;;5054744;28;20289;-56
2021/01/02 10:15:52;;;;;;;1.97;1.00;;;;;;;;;;5054582;28;20270;-55
2021/01/02 10:18:18;;;;;;;5.07;1.30;;;;;;;;;;5054610;28;20312;-56
2021/01/02 10:20:45;;;;;;;1.77;0.80;;;;;;;;;;5054720;28;20250;-56
2021/01/02 10:23:12;;;;;;;1.50;0.87;;;;;;;;;;5054545;28;20261;-55
2021/01/02 10:25:39;;;;;;;3.13;1.03;;;;;;;;;;5054436;28;20250;-56
2021/01/02 10:28:05;;;;;;;2.80;0.90;;;;;;;;;;5054446;28;20254;-56
2021/01/02 10:30:32;;;;;;;3.57;1.20;;;;;;;;;;5036541;28;20799;-55
2021/01/02 10:32:59;;;;;;;2.27;0.73;;;;;;;;;;5054303;28;20628;-56
2021/01/02 10:35:26;;;;;;;1.80;1.03;;;;;;;;;;5053809;28;20737;-56
2021/01/02 10:37:53;;;;;;;3.10;1.30;;;;;;;;;;5054283;28;20311;-55
2021/01/02 10:40:20;;;;;;;3.93;1.40;;;;;;;;;;5054171;28;20249;-55
2021/01/02 10:42:47;;;;;;;3.87;1.20;;;;;;;;;;5054220;28;20737;-56
2021/01/02 10:45:15;;;;;;;3.37;1.00;;;;;;;;;;5054031;28;20257;-56
2021/01/02 10:47:42;;;;;;;3.60;1.33;;;;;;;;;;5054027;28;20266;-56
2021/01/02 10:50:09;;;;;;;6.10;1.10;;;;;;;;;;5054136;28;20254;-56
2021/01/02 10:52:36;;;;;;;1.93;0.90;;;;;;;;;;5053916;28;20297;-56
2021/01/02 10:55:03;;;;;;;2.33;1.00;;;;;;;;;;5053986;28;20258;-56
2021/01/02 10:57:30;;;;;;;3.87;1.80;;;;;;;;;;5053854;28;20621;-55
2021/01/02 10:59:59;;;;;;;2.43;1.10;;;;;;;;;;5051618;28;20250;-56
2021/01/02 11:02:26;;;;;;;4.73;1.30;;;;;;;;;;5053913;28;20323;-55
2021/01/02 11:04:53;;;;;;;3.87;1.10;;;;;;;;;;5053702;28;20254;-56
2021/01/02 11:07:26;;;;;;;4.57;1.50;;;;;;;;;;5053658;28;20258;-55
2021/01/02 11:09:53;;;;;;;3.03;1.50;;;;;;;;;;5053728;28;20250;-56
2021/01/02 11:12:21;;;;;;;3.87;1.57;;;;;;;;;;5053525;28;20289;-56
2021/01/02 11:14:48;;;;;;;5.53;1.60;;;;;;;;;;5053606;28;20262;-56
2021/01/02 11:17:15;;;;;;;6.37;1.70;;;;;;;;;;5053463;28;20613;-55
2021/01/02 11:19:45;;;;;;;4.90;1.67;;;;;;;;;;5053383;28;20741;-55
2021/01/02 11:22:12;;;;;;;3.33;1.57;;;;;;;;;;5053368;28;20250;-55
2021/01/02 11:24:43;;;;;;;4.67;1.63;;;;;;;;;;5053423;28;20260;-56
2021/01/02 11:27:10;;;;;;;3.93;1.50;;;;;;;;;;5053168;28;20250;-55
2021/01/02 11:29:37;;;;;;;4.33;2.00;;;;;;;;;;5053352;28;20307;-55
2021/01/02 11:32:07;;;;;;;4.27;1.90;;;;;;;;;;5053264;28;20256;-55
2021/01/02 11:34:33;;;;;;;4.10;2.03;;;;;;;;;;5052739;28;20292;-55
2021/01/02 11:37:01;;;;;;;6.37;2.33;;;;;;;;;;5053375;28;20246;-55
2021/01/02 11:39:28;;;;;;;4.93;2.10;;;;;;;;;;5053281;28;20282;-55
2021/01/02 11:41:55;;;;;;;5.57;1.90;;;;;;;;;;5053146;28;20260;-55
2021/01/02 11:44:24;;;;;;;4.77;2.00;;;;;;;;;;5053093;28;20241;-55
2021/01/02 11:46:52;;;;;;;4.93;1.73;;;;;;;;;;5053183;28;20265;-55
2021/01/02 11:49:20;;;;;;;7.40;1.70;;;;;;;;;;5052965;28;20333;-55
2021/01/02 11:51:54;;;;;;;6.73;2.23;;;;;;;;;;5053037;28;20295;-55
2021/01/02 11:54:21;;;;;;;5.90;2.00;;;;;;;;;;5052837;28;20637;-55
2021/01/02 11:56:48;;;;;;;3.23;1.70;;;;;;;;;;5052897;28;20258;-55
2021/01/02 11:59:16;;;;;;;6.40;2.00;;;;;;;;;;5052936;28;20265;-56
2021/01/02 12:01:43;;;;;;;4.10;1.60;;;;;;;;;;5053130;28;20266;-56
2021/01/02 12:04:11;;;;;;;3.97;1.73;;;;;;;;;;5052873;28;20257;-55
2021/01/02 12:06:38;;;;;;;4.90;2.07;;;;;;;;;;5052640;28;20265;-55
2021/01/02 12:09:06;;;;;;;2.93;1.30;;;;;;;;;;5052817;28;20258;-55
2021/01/02 12:11:35;;;;;;;4.03;1.53;;;;;;;;;;5052501;28;20262;-55
2021/01/02 12:14:02;;;;;;;4.70;1.73;;;;;;;;;;5052598;28;20657;-55
2021/01/02 12:16:33;;;;;;;8.40;1.93;;;;;;;;;;5053029;28;20250;-55
2021/01/02 12:19:00;;;;;;;9.13;2.10;;;;;;;;;;5052783;28;20254;-56
2021/01/02 12:21:27;;;;;;;5.77;2.03;;;;;;;;;;5052559;28;20257;-55
2021/01/02 12:23:54;;;;;;;4.80;1.70;;;;;;;;;;5052591;28;20300;-55
2021/01/02 12:26:22;;;;;;;4.50;1.90;;;;;;;;;;5052465;28;20611;-55
2021/01/02 12:28:50;;;;;;;3.67;1.40;;;;;;;;;;5052504;28;20258;-55
2021/01/02 12:31:21;;;;;;;5.70;2.37;;;;;;;;;;5035007;28;20300;-55
2021/01/02 12:33:48;;;;;;;5.43;1.97;;;;;;;;;;5052024;28;20359;-55
2021/01/02 12:36:16;;;;;;;6.03;2.23;;;;;;;;;;5052385;28;20333;-55
2021/01/02 12:38:43;;;;;;;6.20;2.23;;;;;;;;;;5052429;28;20308;-55
2021/01/02 12:41:17;;;;;;;5.77;2.87;;;;;;;;;;5052524;28;20790;-55
2021/01/02 12:43:44;;;;;;;4.63;1.93;;;;;;;;;;5052453;28;20586;-55
2021/01/02 12:46:12;;;;;;;4.53;2.00;;;;;;;;;;5052298;28;20252;-55
2021/01/02 12:48:39;;;;;;;6.00;2.07;;;;;;;;;;5052418;28;20396;-55
2021/01/02 12:51:07;;;;;;;5.40;2.40;;;;;;;;;;5052334;28;20250;-55
2021/01/02 12:53:34;;;;;;;5.90;2.33;;;;;;;;;;5052244;28;20292;-55
2021/01/02 12:56:01;;;;;;;9.13;3.57;;;;;;;;;;5052289;28;20265;-55
2021/01/02 12:58:27;;;;;;;6.40;2.77;;;;;;;;;;5052247;28;20257;-55
2021/01/02 13:00:54;;;;;;;5.83;2.50;;;;;;;;;;5052327;28;20261;-55
2021/01/02 13:03:21;;;;;;;7.37;2.70;;;;;;;;;;5052260;28;20329;-55
2021/01/02 13:05:48;;;;;;;7.10;3.03;;;;;;;;;;5052108;28;20254;-55
2021/01/02 13:08:15;;;;;;;8.03;3.47;;;;;;;;;;5052233;28;20262;-55
2021/01/02 13:10:41;;;;;;;7.60;2.83;;;;;;;;;;5052200;28;20298;-55
2021/01/02 13:13:08;;;;;;;10.07;3.20;;;;;;;;;;5052030;28;20290;-55
2021/01/02 13:15:35;;;;;;;6.20;2.97;;;;;;;;;;5052321;28;20251;-55
2021/01/02 13:18:02;;;;;;;9.87;2.93;;;;;;;;;;5052060;28;20268;-55
2021/01/02 13:20:29;;;;;;;8.57;2.93;;;;;;;;;;5052259;28;20247;-55
2021/01/02 13:22:56;;;;;;;8.43;3.10;;;;;;;;;;5053828;28;20258;-55
2021/01/02 13:25:22;;;;;;;6.30;2.57;;;;;;;;;;5055692;28;20760;-55
2021/01/02 13:27:49;;;;;;;6.77;2.00;;;;;;;;;;5055699;28;20257;-56
2021/01/02 13:30:16;;;;;;;6.00;2.30;;;;;;;;;;5055650;28;20251;-56
2021/01/02 13:32:43;;;;;;;7.27;2.33;;;;;;;;;;5055599;28;20639;-56
2021/01/02 13:35:10;;;;;;;6.77;2.70;;;;;;;;;;5054968;28;20369;-55
2021/01/02 13:37:37;;;;;;;9.20;3.30;;;;;;;;;;5055332;28;20270;-56
2021/01/02 13:40:05;;;;;;;14.90;3.43;;;;;;;;;;5055347;28;20292;-56
2021/01/02 13:42:32;;;;;;;6.00;2.73;;;;;;;;;;5054150;28;20250;-56
2021/01/02 13:44:59;;;;;;;13.20;3.57;;;;;;;;;;5055359;28;20626;-56
2021/01/02 13:47:25;;;;;;;6.60;3.40;;;;;;;;;;5055259;28;20624;-56
2021/01/02 13:49:54;;;;;;;15.07;4.63;;;;;;;;;;5055329;28;20604;-56
2021/01/02 13:52:21;;;;;;;11.57;4.17;;;;;;;;;;5055013;28;20242;-56
2021/01/02 13:54:50;;;;;;;9.67;3.97;;;;;;;;;;5055103;28;20262;-56
2021/01/02 13:57:17;;;;;;;15.47;3.73;;;;;;;;;;5053980;28;20257;-56
2021/01/02 13:59:48;;;;;;;14.20;4.07;;;;;;;;;;5055106;28;20262;-56
2021/01/02 14:02:15;;;;;;;13.57;4.30;;;;;;;;;;5054977;28;20258;-56
2021/01/02 14:04:42;;;;;;;10.93;3.60;;;;;;;;;;5054931;28;20387;-56
2021/01/02 14:07:12;;;;;;;9.87;3.33;;;;;;;;;;5054847;28;20278;-56
2021/01/02 14:09:38;;;;;;;10.20;3.13;;;;;;;;;;5054749;28;20335;-57
2021/01/02 14:12:06;;;;;;;14.23;4.00;;;;;;;;;;5054307;28;20357;-57
2021/01/02 14:14:34;;;;;;;14.30;3.97;;;;;;;;;;5054306;28;20300;-57
2021/01/02 14:17:01;;;;;;;11.50;3.33;;;;;;;;;;5054311;28;20339;-57
2021/01/02 14:19:28;;;;;;;7.20;3.13;;;;;;;;;;5054358;28;20729;-57
2021/01/02 14:21:57;;;;;;;5.53;2.60;;;;;;;;;;5054300;28;20282;-57
2021/01/02 14:24:24;;;;;;;8.43;2.90;;;;;;;;;;5054262;28;20261;-57
2021/01/02 14:26:51;;;;;;;8.93;3.10;;;;;;;;;;5054125;28;20336;-57
2021/01/02 14:29:19;;;;;;;12.07;6.07;;;;;;;;;;5054150;28;20258;-57
2021/01/02 14:31:46;;;;;;;19.83;6.27;;;;;;;;;;5054223;28;20342;-57
2021/01/02 14:34:15;;;;;;;14.10;5.90;;;;;;;;;;5053539;28;20302;-57
2021/01/02 14:36:47;;;;;;;15.00;6.87;;;;;;;;;;5053994;28;20286;-57
2021/01/02 14:39:14;;;;;;;15.40;6.50;;;;;;;;;;5053935;28;20269;-57
2021/01/02 14:41:41;;;;;;;16.77;6.23;;;;;;;;;;5054055;28;20254;-57
2021/01/02 14:44:08;;;;;;;13.10;6.37;;;;;;;;;;5053829;28;20325;-57
2021/01/02 14:46:35;;;;;;;37.00;9.13;;;;;;;;;;5053875;28;20254;-57
2021/01/02 14:49:02;;;;;;;19.57;8.20;;;;;;;;;;5053934;28;20289;-57
2021/01/02 14:51:37;;;;;;;14.77;6.77;;;;;;;;;;5053774;28;20360;-58
2021/01/02 14:54:04;;;;;;;18.58;7.65;;;;;;;;;;5053717;28;20285;-57
2021/01/02 14:56:31;;;;;;;19.23;7.07;;;;;;;;;;5053628;28;20111;-58